createdAt,value
2018-02-10T00:01:23.881Z,98964.80
2018-02-10T00:03:51.549Z,98963.40
2018-02-10T00:06:19.110Z,98962.41
2018-02-10T00:08:46.908Z,98957.36
2018-02-10T00:11:14.493Z,98958.12
2018-02-10T00:13:42.212Z,98965.30
2018-02-10T00:16:09.773Z,98965.30
2018-02-10T00:18:37.526Z,98961.94
2018-02-10T00:21:05.075Z,98960.38
2018-02-10T00:23:32.629Z,98946.48
2018-02-10T00:26:00.425Z,98936.30
2018-02-10T00:28:27.973Z,98933.84
2018-02-10T00:30:55.545Z,98925.16
2018-02-10T00:33:23.093Z,98925.08
2018-02-10T00:35:50.697Z,98922.00
2018-02-10T00:38:18.593Z,98923.02
2018-02-10T00:40:46.186Z,98924.66
2018-02-10T00:43:13.754Z,98925.10
2018-02-10T00:45:41.479Z,98933.18
2018-02-10T00:48:09.290Z,98927.05
2018-02-10T00:50:37.115Z,98929.48
2018-02-10T00:53:04.729Z,98927.34
2018-02-10T00:55:32.336Z,98924.70
2018-02-10T00:58:00.031Z,98914.81
2018-02-10T01:00:27.598Z,98910.95
2018-02-10T01:02:55.405Z,98900.11
2018-02-10T01:05:23.139Z,98894.45
2018-02-10T01:07:50.697Z,98888.67
2018-02-10T01:10:18.561Z,98892.39
2018-02-10T01:12:46.277Z,98899.23
2018-02-10T01:15:13.834Z,98900.25
2018-02-10T01:17:41.405Z,98900.23
2018-02-10T01:20:08.957Z,98898.68
2018-02-10T01:22:36.521Z,98890.84
2018-02-10T01:25:04.096Z,98902.23
2018-02-10T01:27:31.686Z,98900.06
2018-02-10T01:29:59.233Z,98900.62
2018-02-10T01:32:26.784Z,98895.61
2018-02-10T01:34:54.349Z,98894.42
2018-02-10T01:37:21.902Z,98889.17
2018-02-10T01:39:49.654Z,98892.05
2018-02-10T01:42:17.222Z,98889.35
2018-02-10T01:44:44.825Z,98886.75
2018-02-10T01:47:12.397Z,98883.09
2018-02-10T01:49:39.934Z,98894.48
2018-02-10T01:52:07.498Z,98898.39
2018-02-10T01:54:35.280Z,98904.27
2018-02-10T01:57:02.842Z,98899.61
2018-02-10T01:59:30.394Z,98897.74
2018-02-10T02:01:58.274Z,98907.73
2018-02-10T02:04:26.015Z,98898.87
2018-02-10T02:06:53.565Z,98900.03
2018-02-10T02:09:21.157Z,98896.56
2018-02-10T02:11:48.712Z,98903.80
2018-02-10T02:14:16.521Z,98910.50
2018-02-10T02:16:44.242Z,98917.29
2018-02-10T02:19:11.865Z,98911.97
2018-02-10T02:21:39.677Z,98915.78
2018-02-10T02:24:07.235Z,98910.77
2018-02-10T02:26:34.809Z,98915.70
2018-02-10T02:29:02.366Z,98916.02
2018-02-10T02:31:30.032Z,98904.61
2018-02-10T02:33:57.598Z,98915.12
2018-02-10T02:36:25.334Z,98910.66
2018-02-10T02:38:52.887Z,98912.38
2018-02-10T02:41:20.444Z,98912.09
2018-02-10T02:43:48.238Z,98910.87
2018-02-10T02:46:15.798Z,98908.60
2018-02-10T02:48:43.366Z,98909.64
2018-02-10T02:53:44.883Z,98896.48
2018-02-10T02:56:12.434Z,98883.08
2018-02-10T02:58:39.986Z,98883.00
2018-02-10T03:01:07.784Z,98883.33
2018-02-10T03:03:35.334Z,98885.05
2018-02-10T03:06:03.119Z,98887.09
2018-02-10T03:08:30.677Z,98895.28
2018-02-10T03:10:58.493Z,98899.11
2018-02-10T03:13:26.153Z,98896.80
2018-02-10T03:15:53.882Z,98902.95
2018-02-10T03:18:21.574Z,98909.98
2018-02-10T03:20:49.143Z,98904.84
2018-02-10T03:23:16.948Z,98906.14
2018-02-10T03:25:44.505Z,98904.77
2018-02-10T03:28:12.283Z,98900.52
2018-02-10T03:30:39.979Z,98896.67
2018-02-10T03:33:07.695Z,98891.11
2018-02-10T03:35:36.117Z,98890.02
2018-02-10T03:38:03.859Z,98891.44
2018-02-10T03:40:31.557Z,98889.05
2018-02-10T03:42:59.395Z,98890.08
2018-02-10T03:45:27.101Z,98892.41
2018-02-10T03:47:54.653Z,98882.45
2018-02-10T03:50:22.201Z,98885.56
2018-02-10T03:52:49.926Z,98881.88
2018-02-10T03:55:17.478Z,98880.86
2018-02-10T03:57:45.046Z,98876.87
2018-02-10T04:00:12.597Z,98874.78
2018-02-10T04:02:40.340Z,98867.48
2018-02-10T04:05:08.055Z,98863.77
2018-02-10T04:07:35.689Z,98860.53
2018-02-10T04:10:03.281Z,98858.33
2018-02-10T04:12:30.838Z,98855.33
2018-02-10T04:14:58.406Z,98848.14
2018-02-10T04:17:25.973Z,98857.34
2018-02-10T04:19:53.800Z,98870.84
2018-02-10T04:22:21.355Z,98880.76
2018-02-10T04:24:49.138Z,98889.39
2018-02-10T04:27:16.723Z,98893.10
2018-02-10T04:29:44.278Z,98895.13
2018-02-10T04:32:11.841Z,98887.27
2018-02-10T04:34:39.397Z,98883.46
2018-02-10T04:37:07.001Z,98874.75
2018-02-10T04:39:34.563Z,98871.72
2018-02-10T04:42:02.122Z,98872.33
2018-02-10T04:44:29.707Z,98869.61
2018-02-10T04:46:57.394Z,98869.66
2018-02-10T04:49:24.957Z,98873.50
2018-02-10T04:51:52.513Z,98882.45
2018-02-10T04:54:20.328Z,98884.17
2018-02-10T04:56:48.067Z,98889.57
2018-02-10T04:59:15.760Z,98885.66
2018-02-10T05:01:43.317Z,98885.75
2018-02-10T05:04:10.902Z,98870.84
2018-02-10T05:06:38.465Z,98871.77
2018-02-10T05:09:06.025Z,98881.25
2018-02-10T05:11:33.629Z,98870.41
2018-02-10T05:14:01.392Z,98873.27
2018-02-10T05:16:28.954Z,98871.95
2018-02-10T05:18:56.521Z,98871.84
2018-02-10T05:21:24.253Z,98877.73
2018-02-10T05:23:51.809Z,98882.07
2018-02-10T05:26:19.581Z,98885.56
2018-02-10T05:28:47.193Z,98893.31
2018-02-10T05:31:14.778Z,98891.54
2018-02-10T05:33:42.340Z,98894.78
2018-02-10T05:36:09.905Z,98894.55
2018-02-10T05:38:37.470Z,98888.05
2018-02-10T05:41:05.307Z,98880.00
2018-02-10T05:43:32.909Z,98894.70
2018-02-10T05:46:00.725Z,98889.91
2018-02-10T05:48:28.442Z,98891.14
2018-02-10T05:50:55.989Z,98900.09
2018-02-10T05:53:23.545Z,98906.75
2018-02-10T05:55:51.298Z,98912.58
2018-02-10T05:58:18.913Z,98911.47
2018-02-10T06:00:46.633Z,98912.78
2018-02-10T06:03:14.222Z,98904.19
2018-02-10T06:05:41.969Z,98905.23
2018-02-10T06:08:09.689Z,98910.78
2018-02-10T06:10:37.249Z,98903.63
2018-02-10T06:13:04.813Z,98909.75
2018-02-10T06:15:32.379Z,98912.08
2018-02-10T06:17:59.970Z,98918.21
2018-02-10T06:20:27.883Z,98921.41
2018-02-10T06:22:55.455Z,98921.48
2018-02-10T06:25:23.213Z,98910.98
2018-02-10T06:27:51.040Z,98915.92
2018-02-10T06:30:18.609Z,98911.59
2018-02-10T06:32:46.214Z,98907.74
2018-02-10T06:35:13.986Z,98916.66
2018-02-10T06:37:41.597Z,98911.96
2018-02-10T06:40:09.148Z,98924.41
2018-02-10T06:42:36.709Z,98913.83
2018-02-10T06:45:04.280Z,98910.05
2018-02-10T06:47:32.075Z,98908.53
2018-02-10T06:49:59.641Z,98909.92
2018-02-10T06:52:27.192Z,98902.75
2018-02-10T06:54:54.871Z,98898.92
2018-02-10T06:57:22.436Z,98894.52
2018-02-10T06:59:50.027Z,98895.64
2018-02-10T07:02:17.883Z,98906.53
2018-02-10T07:04:45.600Z,98906.30
2018-02-10T07:07:13.165Z,98901.47
2018-02-10T07:09:40.731Z,98899.73
2018-02-10T07:12:08.555Z,98894.99
2018-02-10T07:14:36.145Z,98893.38
2018-02-10T07:17:03.752Z,98895.14
2018-02-10T07:19:31.325Z,98898.30
2018-02-10T07:21:59.866Z,98895.59
2018-02-10T07:24:27.441Z,98890.93
2018-02-10T07:26:55.165Z,98886.60
2018-02-10T07:29:22.984Z,98883.46
2018-02-10T07:31:50.797Z,98886.13
2018-02-10T07:34:18.361Z,98886.93
2018-02-10T07:36:45.923Z,98885.86
2018-02-10T07:39:13.757Z,98884.45
2018-02-10T07:41:41.350Z,98880.59
2018-02-10T07:44:09.092Z,98880.11
2018-02-10T07:46:36.703Z,98886.02
2018-02-10T07:49:04.257Z,98881.66
2018-02-10T07:51:31.814Z,98882.13
2018-02-10T07:53:59.394Z,98892.91
2018-02-10T07:56:26.993Z,98892.45
2018-02-10T07:58:54.561Z,98891.17
2018-02-10T08:01:22.149Z,98891.53
2018-02-10T08:03:49.937Z,98890.28
2018-02-10T08:06:17.501Z,98892.62
2018-02-10T08:08:45.274Z,98888.66
2018-02-10T08:11:12.874Z,98885.66
2018-02-10T08:13:40.429Z,98882.16
2018-02-10T08:16:08.517Z,98874.53
2018-02-10T08:18:36.890Z,98875.32
2018-02-10T08:21:04.618Z,98874.21
2018-02-10T08:23:32.274Z,98870.35
2018-02-10T08:25:59.986Z,98872.03
2018-02-10T08:28:27.610Z,98865.13
2018-02-10T08:30:55.228Z,98855.98
2018-02-10T08:33:22.793Z,98853.70
2018-02-10T08:35:50.461Z,98837.53
2018-02-10T08:38:18.066Z,98837.32
2018-02-10T08:40:45.908Z,98838.66
2018-02-10T08:43:13.467Z,98838.48
2018-02-10T08:45:41.038Z,98828.20
2018-02-10T08:48:08.652Z,98828.05
2018-02-10T08:50:36.271Z,98820.50
2018-02-10T08:53:03.876Z,98821.00
2018-02-10T08:55:31.769Z,98818.78
2018-02-10T08:57:59.321Z,98811.53
2018-02-10T09:00:26.885Z,98807.12
2018-02-10T09:02:54.459Z,98806.38
2018-02-10T09:05:22.030Z,98801.87
2018-02-10T09:07:49.695Z,98793.06
2018-02-10T09:10:17.317Z,98795.47
2018-02-10T09:12:45.333Z,98790.39
2018-02-10T09:15:12.901Z,98789.87
2018-02-10T09:17:40.645Z,98783.96
2018-02-10T09:20:08.303Z,98783.94
2018-02-10T09:22:35.862Z,98776.05
2018-02-10T09:25:03.612Z,98785.52
2018-02-10T09:27:31.244Z,98780.28
2018-02-10T09:29:58.897Z,98783.88
2018-02-10T09:32:26.589Z,98785.48
2018-02-10T09:34:54.152Z,98775.99
2018-02-10T09:37:21.728Z,98775.88
2018-02-10T09:39:49.318Z,98779.77
2018-02-10T09:42:16.893Z,98752.96
2018-02-10T09:44:44.453Z,98767.19
2018-02-10T09:47:12.082Z,98762.89
2018-02-10T09:49:39.623Z,98749.89
2018-02-10T09:52:07.428Z,98750.45
2018-02-10T09:54:35.248Z,98737.73
2018-02-10T09:57:02.865Z,98739.89
2018-02-10T09:59:30.465Z,98732.61
2018-02-10T10:01:58.092Z,98737.38
2018-02-10T10:04:25.919Z,98745.69
2018-02-10T10:06:53.742Z,98732.66
2018-02-10T10:09:21.297Z,98728.98
2018-02-10T10:11:48.838Z,98727.07
2018-02-10T10:14:16.591Z,98726.59
2018-02-10T10:16:44.170Z,98723.59
2018-02-10T10:19:11.895Z,98713.77
2018-02-10T10:21:40.063Z,98724.89
2018-02-10T10:24:07.627Z,98716.55
2018-02-10T10:26:35.383Z,98714.55
2018-02-10T10:29:03.051Z,98703.22
2018-02-10T10:31:30.918Z,98696.86
2018-02-10T10:33:58.738Z,98692.33
2018-02-10T10:36:26.457Z,98682.42
2018-02-10T10:38:54.179Z,98683.30
2018-02-10T10:41:21.996Z,98693.32
2018-02-10T10:43:49.738Z,98694.77
2018-02-10T10:46:17.530Z,98683.67
2018-02-10T10:48:45.250Z,98686.16
2018-02-10T10:51:13.058Z,98685.55
2018-02-10T10:53:40.676Z,98682.02
2018-02-10T10:56:08.282Z,98680.84
2018-02-10T10:58:36.121Z,98676.14
2018-02-10T11:01:03.702Z,98679.30
2018-02-10T11:03:31.274Z,98667.80
2018-02-10T11:05:58.834Z,98675.13
2018-02-10T11:08:26.401Z,98666.49
2018-02-10T11:10:53.964Z,98667.70
2018-02-10T11:13:21.828Z,98655.23
2018-02-10T11:15:49.521Z,98667.70
2018-02-10T11:18:17.121Z,98659.28
2018-02-10T11:20:44.697Z,98661.16
2018-02-10T11:23:12.376Z,98656.81
2018-02-10T11:25:39.937Z,98644.63
2018-02-10T11:28:07.512Z,98643.20
2018-02-10T11:30:35.172Z,98636.87
2018-02-10T11:33:02.758Z,98628.95
2018-02-10T11:35:30.335Z,98633.91
2018-02-10T11:37:57.899Z,98628.06
2018-02-10T11:40:25.454Z,98632.63
2018-02-10T11:42:53.018Z,98623.33
2018-02-10T11:45:20.577Z,98618.98
2018-02-10T11:47:48.231Z,98615.13
2018-02-10T11:50:15.824Z,98606.25
2018-02-10T11:52:43.506Z,98599.21
2018-02-10T11:55:11.331Z,98586.33
2018-02-10T11:57:39.059Z,98579.84
2018-02-10T12:00:06.709Z,98575.05
2018-02-10T12:02:34.276Z,98575.95
2018-02-10T12:05:02.006Z,98567.49
2018-02-10T12:07:29.573Z,98566.50
2018-02-10T12:09:57.258Z,98568.20
2018-02-10T12:12:24.826Z,98562.02
2018-02-10T12:14:52.405Z,98558.86
2018-02-10T12:17:19.980Z,98557.09
2018-02-10T12:19:47.563Z,98563.86
2018-02-10T12:22:15.137Z,98559.42
2018-02-10T12:24:42.707Z,98561.39
2018-02-10T12:27:10.465Z,98560.81
2018-02-10T12:29:38.122Z,98562.45
2018-02-10T12:32:05.901Z,98556.32
2018-02-10T12:34:33.449Z,98561.04
2018-02-10T12:37:01.033Z,98559.06
2018-02-10T12:39:28.727Z,98551.36
2018-02-10T12:41:56.305Z,98553.12
2018-02-10T12:44:23.857Z,98542.09
2018-02-10T12:46:51.477Z,98546.94
2018-02-10T12:49:24.641Z,98547.69
2018-02-10T12:51:52.409Z,98544.21
2018-02-10T12:54:19.960Z,98549.77
2018-02-10T12:56:47.699Z,98546.09
2018-02-10T12:59:15.276Z,98536.08
2018-02-10T13:01:42.830Z,98537.35
2018-02-10T13:04:10.652Z,98527.36
2018-02-10T13:06:38.250Z,98526.96
2018-02-10T13:09:05.887Z,98518.16
2018-02-10T13:11:33.607Z,98523.94
2018-02-10T13:14:01.425Z,98521.80
2018-02-10T13:16:29.005Z,98514.77
2018-02-10T13:18:56.652Z,98523.22
2018-02-10T13:21:24.224Z,98516.69
2018-02-10T13:23:51.802Z,98521.59
2018-02-10T13:26:19.500Z,98513.77
2018-02-10T13:28:47.118Z,98512.75
2018-02-10T13:31:14.711Z,98502.05
2018-02-10T13:33:42.294Z,98502.38
2018-02-10T13:36:09.853Z,98502.52
2018-02-10T13:38:37.603Z,98499.06
2018-02-10T13:41:05.423Z,98504.44
2018-02-10T13:43:33.241Z,98507.47
2018-02-10T13:46:00.798Z,98497.61
2018-02-10T13:48:40.193Z,98505.69
2018-02-10T13:51:07.797Z,98506.98
2018-02-10T13:53:35.375Z,98510.25
2018-02-10T13:56:02.976Z,98510.79
2018-02-10T13:58:30.790Z,98505.92
2018-02-10T14:00:58.608Z,98506.11
2018-02-10T14:03:26.427Z,98498.75
2018-02-10T14:05:54.245Z,98505.92
2018-02-10T14:08:21.875Z,98514.83
2018-02-10T14:10:49.561Z,98519.93
2018-02-10T14:13:17.130Z,98510.09
2018-02-10T14:15:44.921Z,98521.72
2018-02-10T14:18:12.738Z,98528.10
2018-02-10T14:20:40.568Z,98528.08
2018-02-10T14:23:08.336Z,98521.30
2018-02-10T14:25:35.923Z,98526.70
2018-02-10T14:28:03.514Z,98527.72
2018-02-10T14:30:31.326Z,98527.72
2018-02-10T14:32:58.886Z,98525.67
2018-02-10T14:35:26.655Z,98537.19
2018-02-10T14:37:54.387Z,98534.36
2018-02-10T14:40:22.201Z,98540.04
2018-02-10T14:42:49.746Z,98535.15
2018-02-10T14:45:17.535Z,98531.66
2018-02-10T14:47:45.145Z,98541.59
2018-02-10T14:50:12.972Z,98533.12
2018-02-10T14:52:40.567Z,98532.34
2018-02-10T14:55:08.165Z,98528.09
2018-02-10T14:57:35.892Z,98524.02
2018-02-10T15:00:03.517Z,98528.99
2018-02-10T15:02:31.405Z,98520.80
2018-02-10T15:04:59.095Z,98516.80
2018-02-10T15:07:26.653Z,98498.87
2018-02-10T15:09:54.499Z,98506.80
2018-02-10T15:12:22.069Z,98511.72
2018-02-10T15:14:49.629Z,98505.55
2018-02-10T15:17:17.194Z,98506.17
2018-02-10T15:19:44.989Z,98504.98
2018-02-10T15:22:12.808Z,98499.70
2018-02-10T15:24:40.370Z,98498.56
2018-02-10T15:27:08.013Z,98498.80
2018-02-10T15:29:47.550Z,98494.25
2018-02-10T15:32:27.017Z,98491.12
2018-02-10T15:34:59.698Z,98486.62
2018-02-10T15:37:27.276Z,98478.66
2018-02-10T15:39:54.913Z,98479.58
2018-02-10T15:42:22.544Z,98484.98
2018-02-10T15:44:50.151Z,98490.15
2018-02-10T15:47:17.864Z,98488.95
2018-02-10T15:49:45.806Z,98479.97
2018-02-10T15:52:13.429Z,98489.31
2018-02-10T15:54:41.247Z,98491.95
2018-02-10T15:57:08.834Z,98491.86
2018-02-10T15:59:36.390Z,98492.41
2018-02-10T16:02:03.986Z,98487.85
2018-02-10T16:04:31.714Z,98481.64
2018-02-10T16:06:59.532Z,98484.80
2018-02-10T16:09:27.250Z,98476.50
2018-02-10T16:11:55.178Z,98480.93
2018-02-10T16:14:22.779Z,98474.14
2018-02-10T16:16:50.333Z,98484.00
2018-02-10T16:19:17.898Z,98486.52
2018-02-10T16:21:45.703Z,98486.81
2018-02-10T16:24:13.469Z,98493.34
2018-02-10T16:26:41.024Z,98487.81
2018-02-10T16:29:08.716Z,98489.62
2018-02-10T16:31:36.277Z,98482.47
2018-02-10T16:34:03.842Z,98480.59
2018-02-10T16:36:31.514Z,98477.95
2018-02-10T16:38:59.070Z,98478.41
2018-02-10T16:41:26.669Z,98476.33
2018-02-10T16:43:54.233Z,98470.91
2018-02-10T16:46:21.861Z,98454.77
2018-02-10T16:48:49.484Z,98459.47
2018-02-10T16:51:17.041Z,98457.36
2018-02-10T16:53:44.835Z,98452.98
2018-02-10T16:56:12.653Z,98453.44
2018-02-10T16:58:40.372Z,98442.47
2018-02-10T17:01:07.950Z,98449.62
2018-02-10T17:03:35.501Z,98451.21
2018-02-10T17:06:03.227Z,98443.65
2018-02-10T17:08:31.045Z,98438.95
2018-02-10T17:10:58.867Z,98444.41
2018-02-10T17:13:26.760Z,98434.61
2018-02-10T17:15:54.344Z,98435.36
2018-02-10T17:18:22.108Z,98431.22
2018-02-10T17:20:49.670Z,98431.87
2018-02-10T17:23:17.454Z,98426.06
2018-02-10T17:25:45.163Z,98430.13
2018-02-10T17:28:12.725Z,98420.78
2018-02-10T17:30:40.398Z,98417.38
2018-02-10T17:33:08.090Z,98418.08
2018-02-10T17:35:35.697Z,98416.84
2018-02-10T17:38:03.267Z,98415.50
2018-02-10T17:40:30.939Z,98419.78
2018-02-10T17:42:58.505Z,98411.09
2018-02-10T17:45:26.104Z,98413.89
2018-02-10T17:47:53.934Z,98413.02
2018-02-10T17:50:21.486Z,98414.01
2018-02-10T17:52:49.470Z,98411.38
2018-02-10T17:55:17.058Z,98403.52
2018-02-10T17:57:44.642Z,98399.19
2018-02-10T18:00:12.218Z,98392.56
2018-02-10T18:02:39.799Z,98395.89
2018-02-10T18:05:07.367Z,98393.68
2018-02-10T18:07:34.950Z,98389.52
2018-02-10T18:10:02.613Z,98380.09
2018-02-10T18:12:30.173Z,98373.30
2018-02-10T18:14:57.731Z,98371.70
2018-02-10T18:17:25.299Z,98372.86
2018-02-10T18:19:53.025Z,98371.53
2018-02-10T18:22:20.612Z,98368.23
2018-02-10T18:24:48.180Z,98360.62
2018-02-10T18:27:16.747Z,98366.78
2018-02-10T18:29:44.307Z,98374.34
2018-02-10T18:32:11.863Z,98367.56
2018-02-10T18:34:39.438Z,98353.00
2018-02-10T18:37:07.120Z,98357.78
2018-02-10T18:39:34.745Z,98346.17
2018-02-10T18:42:02.664Z,98336.47
2018-02-10T18:44:30.640Z,98332.48
2018-02-10T18:46:58.386Z,98341.59
2018-02-10T18:49:26.048Z,98341.95
2018-02-10T18:51:53.906Z,98342.00
2018-02-10T18:54:21.469Z,98352.64
2018-02-10T18:56:49.080Z,98349.77
2018-02-10T18:59:16.630Z,98358.67
2018-02-10T19:01:44.183Z,98354.55
2018-02-10T19:04:11.768Z,98354.27
2018-02-10T19:06:39.335Z,98334.81
2018-02-10T19:09:07.204Z,98342.46
2018-02-10T19:11:34.917Z,98338.39
2018-02-10T19:14:02.593Z,98329.56
2018-02-10T19:16:30.345Z,98329.73
2018-02-10T19:18:57.890Z,98326.20
2018-02-10T19:21:25.578Z,98320.46
2018-02-10T19:23:53.707Z,98325.91
2018-02-10T19:26:23.702Z,98335.28
2018-02-10T19:28:52.003Z,98330.44
2018-02-10T19:31:19.710Z,98331.95
2018-02-10T19:33:47.548Z,98324.05
2018-02-10T19:36:15.379Z,98325.87
2018-02-10T19:38:43.105Z,98324.91
2018-02-10T19:41:10.719Z,98333.06
2018-02-10T19:43:38.596Z,98329.39
2018-02-10T19:46:06.353Z,98334.84
2018-02-10T19:48:34.235Z,98333.94
2018-02-10T19:51:02.350Z,98325.16
2018-02-10T19:53:30.226Z,98336.08
2018-02-10T19:55:58.028Z,98341.70
2018-02-10T19:58:25.912Z,98345.11
2018-02-10T20:00:53.670Z,98350.02
2018-02-10T20:03:21.226Z,98354.77
2018-02-10T20:05:48.798Z,98355.59
2018-02-10T20:08:16.567Z,98349.44
2018-02-10T20:10:44.137Z,98344.50
2018-02-10T20:13:11.756Z,98357.15
2018-02-10T20:15:39.353Z,98358.17
2018-02-10T20:18:07.154Z,98352.77
2018-02-10T20:20:34.886Z,98346.20
2018-02-10T20:23:02.527Z,98344.45
2018-02-10T20:25:30.093Z,98357.69
2018-02-10T20:27:57.667Z,98350.83
2018-02-10T20:30:25.571Z,98363.42
2018-02-10T20:32:53.173Z,98357.00
2018-02-10T20:35:20.723Z,98355.41
2018-02-10T20:37:48.291Z,98351.03
2018-02-10T20:40:15.942Z,98346.98
2018-02-10T20:42:43.547Z,98344.52
2018-02-10T20:45:11.136Z,98345.80
2018-02-10T20:47:39.005Z,98336.16
2018-02-10T20:50:06.724Z,98327.66
2018-02-10T20:52:34.281Z,98327.89
2018-02-10T20:55:01.845Z,98324.66
2018-02-10T20:57:29.397Z,98312.08
2018-02-10T20:59:57.195Z,98308.37
2018-02-10T21:02:24.786Z,98304.82
2018-02-10T21:04:52.606Z,98296.66
2018-02-10T21:07:20.247Z,98291.50
2018-02-10T21:09:47.816Z,98285.34
2018-02-10T21:12:15.475Z,98284.52
2018-02-10T21:14:43.041Z,98287.09
2018-02-10T21:17:10.601Z,98282.47
2018-02-10T21:19:38.158Z,98281.34
2018-02-10T21:22:05.968Z,98284.15
2018-02-10T21:24:33.775Z,98282.52
2018-02-10T21:27:01.494Z,98288.42
2018-02-10T21:29:29.071Z,98269.04
2018-02-10T21:31:56.626Z,98289.36
2018-02-10T21:34:24.190Z,98289.31
2018-02-10T21:36:51.745Z,98289.48
2018-02-10T21:39:19.397Z,98289.81
2018-02-10T21:41:47.205Z,98291.34
2018-02-10T21:44:14.782Z,98295.89
2018-02-10T21:46:43.340Z,98302.37
2018-02-10T21:49:11.074Z,98306.33
2018-02-10T21:51:38.976Z,98311.52
2018-02-10T21:54:06.538Z,98311.44
2018-02-10T21:56:34.150Z,98319.57
2018-02-10T21:59:01.912Z,98321.46
2018-02-10T22:01:29.471Z,98323.70
2018-02-10T22:03:57.244Z,98320.97
2018-02-10T22:06:24.797Z,98327.36
2018-02-10T22:08:52.357Z,98317.68
2018-02-10T22:11:19.899Z,98317.56
2018-02-10T22:13:47.506Z,98320.05
2018-02-10T22:16:15.226Z,98310.06
2018-02-10T22:18:42.864Z,98307.00
2018-02-10T22:21:10.692Z,98297.05
2018-02-10T22:23:38.263Z,98303.81
2018-02-10T22:26:05.874Z,98300.18
2018-02-10T22:28:33.652Z,98302.02
2018-02-10T22:31:01.466Z,98293.05
2018-02-10T22:33:29.069Z,98295.49
2018-02-10T22:35:56.640Z,98294.14
2018-02-10T22:38:24.187Z,98295.39
2018-02-10T22:40:51.911Z,98276.33
2018-02-10T22:43:19.522Z,98284.31
2018-02-10T22:45:47.272Z,98278.63
2018-02-10T22:48:18.703Z,98275.62
2018-02-10T22:50:46.265Z,98269.38
2018-02-10T22:53:13.823Z,98277.42
2018-02-10T22:55:41.556Z,98263.33
2018-02-10T22:58:09.154Z,98264.59
2018-02-10T23:00:36.779Z,98250.41
2018-02-10T23:03:04.513Z,98253.30
2018-02-10T23:05:32.051Z,98252.30
2018-02-10T23:07:59.613Z,98249.55
2018-02-10T23:10:27.364Z,98238.03
2018-02-10T23:12:54.910Z,98242.41
2018-02-10T23:15:22.702Z,98237.00
2018-02-10T23:17:50.518Z,98229.52
2018-02-10T23:20:18.114Z,98223.37
2018-02-10T23:22:45.835Z,98216.87
2018-02-10T23:25:13.553Z,98216.57
2018-02-10T23:27:41.109Z,98215.77
2018-02-10T23:30:08.677Z,98206.26
2018-02-10T23:32:36.237Z,98200.09
2018-02-10T23:35:04.044Z,98202.55
2018-02-10T23:37:31.657Z,98206.81
2018-02-10T23:39:59.223Z,98205.84
2018-02-10T23:42:26.922Z,98194.34
2018-02-10T23:44:54.716Z,98210.94
2018-02-10T23:47:22.283Z,98206.26
2018-02-10T23:49:49.833Z,98204.88
2018-02-10T23:52:19.282Z,98209.19
2018-02-10T23:54:46.834Z,98201.03
2018-02-10T23:57:14.390Z,98201.36
2018-02-10T23:59:41.957Z,98204.79
